sensor_id;sensor_type;location;lat;lon;timestamp;P1;durP1;ratioP1;P2;durP2;ratioP2
67164;SDS011;54093;50.014;19.984;2023-04-08T00:02:12;17.85;;;11.43;;
67164;SDS011;54093;50.014;19.984;2023-04-08T00:11:33;23.90;;;12.43;;
67164;SDS011;54093;50.014;19.984;2023-04-08T00:20:54;24.30;;;12.73;;
67164;SDS011;54093;50.014;19.984;2023-04-08T00:30:16;24.23;;;14.13;;
67164;SDS011;54093;50.014;19.984;2023-04-08T00:39:37;20.05;;;11.55;;
67164;SDS011;54093;50.014;19.984;2023-04-08T00:48:58;20.27;;;13.25;;
67164;SDS011;54093;50.014;19.984;2023-04-08T00:58:19;12.75;;;10.05;;
67164;SDS011;54093;50.014;19.984;2023-04-08T01:07:40;24.17;;;13.25;;
67164;SDS011;54093;50.014;19.984;2023-04-08T01:17:06;17.63;;;9.63;;
67164;SDS011;54093;50.014;19.984;2023-04-08T01:26:28;25.67;;;14.52;;
67164;SDS011;54093;50.014;19.984;2023-04-08T01:35:51;20.90;;;11.27;;
67164;SDS011;54093;50.014;19.984;2023-04-08T01:45:13;12.45;;;9.00;;
67164;SDS011;54093;50.014;19.984;2023-04-08T01:54:35;16.90;;;11.90;;
67164;SDS011;54093;50.014;19.984;2023-04-08T02:03:57;18.55;;;10.63;;
67164;SDS011;54093;50.014;19.984;2023-04-08T02:13:20;25.08;;;13.82;;
67164;SDS011;54093;50.014;19.984;2023-04-08T02:22:46;18.30;;;10.52;;
67164;SDS011;54093;50.014;19.984;2023-04-08T02:32:09;18.95;;;10.35;;
67164;SDS011;54093;50.014;19.984;2023-04-08T02:41:31;20.75;;;11.00;;
67164;SDS011;54093;50.014;19.984;2023-04-08T02:50:52;25.98;;;10.00;;
67164;SDS011;54093;50.014;19.984;2023-04-08T03:00:14;27.27;;;15.40;;
67164;SDS011;54093;50.014;19.984;2023-04-08T03:09:35;12.52;;;9.52;;
67164;SDS011;54093;50.014;19.984;2023-04-08T03:18:56;25.10;;;11.32;;
67164;SDS011;54093;50.014;19.984;2023-04-08T03:28:17;15.07;;;10.70;;
67164;SDS011;54093;50.014;19.984;2023-04-08T03:37:38;8.82;;;7.45;;
67164;SDS011;54093;50.014;19.984;2023-04-08T03:46:59;12.32;;;10.43;;
67164;SDS011;54093;50.014;19.984;2023-04-08T03:56:20;12.63;;;9.25;;
67164;SDS011;54093;50.014;19.984;2023-04-08T04:05:41;10.63;;;7.15;;
67164;SDS011;54093;50.014;19.984;2023-04-08T04:15:02;15.80;;;9.82;;
67164;SDS011;54093;50.014;19.984;2023-04-08T04:24:24;14.77;;;10.98;;
67164;SDS011;54093;50.014;19.984;2023-04-08T04:33:45;11.82;;;7.07;;
67164;SDS011;54093;50.014;19.984;2023-04-08T04:43:06;11.75;;;8.55;;
67164;SDS011;54093;50.014;19.984;2023-04-08T04:52:27;9.30;;;7.43;;
67164;SDS011;54093;50.014;19.984;2023-04-08T05:01:48;12.20;;;9.57;;
67164;SDS011;54093;50.014;19.984;2023-04-08T05:11:09;7.93;;;7.13;;
67164;SDS011;54093;50.014;19.984;2023-04-08T05:20:30;8.43;;;7.63;;
67164;SDS011;54093;50.014;19.984;2023-04-08T05:29:51;9.15;;;8.25;;
67164;SDS011;54093;50.014;19.984;2023-04-08T05:39:12;6.55;;;5.97;;
67164;SDS011;54093;50.014;19.984;2023-04-08T05:48:36;7.95;;;7.22;;
67164;SDS011;54093;50.014;19.984;2023-04-08T05:57:57;13.50;;;10.50;;
67164;SDS011;54093;50.014;19.984;2023-04-08T06:07:18;7.80;;;6.57;;
67164;SDS011;54093;50.014;19.984;2023-04-08T06:16:39;10.55;;;9.45;;
67164;SDS011;54093;50.014;19.984;2023-04-08T06:26:00;9.95;;;8.95;;
67164;SDS011;54093;50.014;19.984;2023-04-08T06:35:21;5.55;;;5.15;;
67164;SDS011;54093;50.014;19.984;2023-04-08T06:44:41;8.88;;;7.75;;
67164;SDS011;54093;50.014;19.984;2023-04-08T06:54:02;9.85;;;6.10;;
67164;SDS011;54093;50.014;19.984;2023-04-08T07:03:24;11.35;;;9.52;;
67164;SDS011;54093;50.014;19.984;2023-04-08T07:12:44;7.03;;;6.32;;
67164;SDS011;54093;50.014;19.984;2023-04-08T07:22:05;10.82;;;9.73;;
67164;SDS011;54093;50.014;19.984;2023-04-08T07:31:26;8.55;;;7.72;;
67164;SDS011;54093;50.014;19.984;2023-04-08T07:40:47;6.80;;;6.15;;
67164;SDS011;54093;50.014;19.984;2023-04-08T07:50:08;6.43;;;5.82;;
67164;SDS011;54093;50.014;19.984;2023-04-08T07:59:30;7.25;;;6.68;;
67164;SDS011;54093;50.014;19.984;2023-04-08T08:08:52;5.95;;;5.35;;
67164;SDS011;54093;50.014;19.984;2023-04-08T08:18:12;5.10;;;4.68;;
67164;SDS011;54093;50.014;19.984;2023-04-08T08:27:33;6.95;;;6.28;;
67164;SDS011;54093;50.014;19.984;2023-04-08T08:36:54;18.40;;;16.42;;
67164;SDS011;54093;50.014;19.984;2023-04-08T08:46:16;6.43;;;5.78;;
67164;SDS011;54093;50.014;19.984;2023-04-08T08:55:38;5.35;;;4.95;;
67164;SDS011;54093;50.014;19.984;2023-04-08T09:05:02;10.48;;;9.32;;
67164;SDS011;54093;50.014;19.984;2023-04-08T09:14:24;7.43;;;6.75;;
67164;SDS011;54093;50.014;19.984;2023-04-08T09:23:46;8.88;;;7.93;;
67164;SDS011;54093;50.014;19.984;2023-04-08T09:33:10;11.13;;;8.90;;
67164;SDS011;54093;50.014;19.984;2023-04-08T09:42:31;19.08;;;10.27;;
67164;SDS011;54093;50.014;19.984;2023-04-08T09:51:57;11.27;;;9.07;;
67164;SDS011;54093;50.014;19.984;2023-04-08T10:01:36;11.10;;;9.48;;
67164;SDS011;54093;50.014;19.984;2023-04-08T10:10:59;12.80;;;10.35;;
67164;SDS011;54093;50.014;19.984;2023-04-08T10:29:56;14.43;;;11.10;;
67164;SDS011;54093;50.014;19.984;2023-04-08T10:39:17;9.00;;;7.88;;
67164;SDS011;54093;50.014;19.984;2023-04-08T10:48:38;18.52;;;12.55;;
67164;SDS011;54093;50.014;19.984;2023-04-08T10:58:06;14.82;;;8.90;;
67164;SDS011;54093;50.014;19.984;2023-04-08T11:07:28;9.73;;;8.50;;
67164;SDS011;54093;50.014;19.984;2023-04-08T11:16:49;10.50;;;9.40;;
67164;SDS011;54093;50.014;19.984;2023-04-08T11:26:11;14.00;;;9.43;;
67164;SDS011;54093;50.014;19.984;2023-04-08T11:35:33;9.38;;;8.30;;
67164;SDS011;54093;50.014;19.984;2023-04-08T11:44:54;20.08;;;12.80;;
67164;SDS011;54093;50.014;19.984;2023-04-08T11:54:25;11.25;;;8.95;;
67164;SDS011;54093;50.014;19.984;2023-04-08T12:03:56;12.57;;;9.73;;
67164;SDS011;54093;50.014;19.984;2023-04-08T12:13:18;13.60;;;9.88;;
67164;SDS011;54093;50.014;19.984;2023-04-08T12:22:39;12.30;;;9.88;;
67164;SDS011;54093;50.014;19.984;2023-04-08T12:32:00;13.02;;;7.63;;
67164;SDS011;54093;50.014;19.984;2023-04-08T12:41:21;9.77;;;8.68;;
67164;SDS011;54093;50.014;19.984;2023-04-08T12:50:42;10.45;;;8.25;;
67164;SDS011;54093;50.014;19.984;2023-04-08T13:00:03;13.48;;;9.50;;
67164;SDS011;54093;50.014;19.984;2023-04-08T13:09:25;9.77;;;8.68;;
67164;SDS011;54093;50.014;19.984;2023-04-08T13:18:47;14.18;;;9.30;;
67164;SDS011;54093;50.014;19.984;2023-04-08T13:28:08;16.63;;;11.52;;
67164;SDS011;54093;50.014;19.984;2023-04-08T13:37:29;14.23;;;9.18;;
67164;SDS011;54093;50.014;19.984;2023-04-08T13:46:50;13.32;;;9.13;;
67164;SDS011;54093;50.014;19.984;2023-04-08T13:56:11;15.50;;;9.45;;
67164;SDS011;54093;50.014;19.984;2023-04-08T14:05:32;14.40;;;11.35;;
67164;SDS011;54093;50.014;19.984;2023-04-08T14:14:53;8.38;;;7.60;;
67164;SDS011;54093;50.014;19.984;2023-04-08T14:24:13;12.80;;;8.80;;
67164;SDS011;54093;50.014;19.984;2023-04-08T14:33:35;12.73;;;8.70;;
67164;SDS011;54093;50.014;19.984;2023-04-08T14:42:56;8.77;;;7.57;;
67164;SDS011;54093;50.014;19.984;2023-04-08T14:52:17;11.43;;;10.18;;
67164;SDS011;54093;50.014;19.984;2023-04-08T15:01:38;8.07;;;7.28;;
67164;SDS011;54093;50.014;19.984;2023-04-08T15:10:58;12.98;;;8.18;;
67164;SDS011;54093;50.014;19.984;2023-04-08T15:20:19;10.38;;;9.27;;
67164;SDS011;54093;50.014;19.984;2023-04-08T15:29:40;11.48;;;8.38;;
67164;SDS011;54093;50.014;19.984;2023-04-08T15:39:02;12.48;;;8.85;;
67164;SDS011;54093;50.014;19.984;2023-04-08T15:48:23;10.18;;;8.00;;
67164;SDS011;54093;50.014;19.984;2023-04-08T15:57:44;15.57;;;11.35;;
67164;SDS011;54093;50.014;19.984;2023-04-08T16:07:05;11.25;;;9.07;;
67164;SDS011;54093;50.014;19.984;2023-04-08T16:16:26;13.55;;;12.07;;
67164;SDS011;54093;50.014;19.984;2023-04-08T16:25:47;14.35;;;10.25;;
67164;SDS011;54093;50.014;19.984;2023-04-08T16:35:08;11.50;;;10.32;;
67164;SDS011;54093;50.014;19.984;2023-04-08T16:44:28;19.20;;;11.07;;
67164;SDS011;54093;50.014;19.984;2023-04-08T16:53:49;12.45;;;10.38;;
67164;SDS011;54093;50.014;19.984;2023-04-08T17:03:10;14.38;;;10.73;;
67164;SDS011;54093;50.014;19.984;2023-04-08T17:12:31;18.23;;;11.77;;
67164;SDS011;54093;50.014;19.984;2023-04-08T17:21:52;16.08;;;11.15;;
67164;SDS011;54093;50.014;19.984;2023-04-08T17:31:13;19.50;;;12.32;;
67164;SDS011;54093;50.014;19.984;2023-04-08T17:40:35;15.25;;;11.70;;
67164;SDS011;54093;50.014;19.984;2023-04-08T17:49:56;16.75;;;11.20;;
67164;SDS011;54093;50.014;19.984;2023-04-08T17:59:17;21.55;;;14.68;;
67164;SDS011;54093;50.014;19.984;2023-04-08T18:08:38;22.88;;;13.20;;
67164;SDS011;54093;50.014;19.984;2023-04-08T18:17:59;13.55;;;11.02;;
67164;SDS011;54093;50.014;19.984;2023-04-08T18:27:20;21.40;;;12.52;;
67164;SDS011;54093;50.014;19.984;2023-04-08T18:36:43;16.73;;;10.65;;
67164;SDS011;54093;50.014;19.984;2023-04-08T18:46:09;15.70;;;11.38;;
67164;SDS011;54093;50.014;19.984;2023-04-08T18:55:31;17.00;;;11.60;;
67164;SDS011;54093;50.014;19.984;2023-04-08T19:04:55;17.05;;;11.40;;
67164;SDS011;54093;50.014;19.984;2023-04-08T19:14:17;19.17;;;11.98;;
67164;SDS011;54093;50.014;19.984;2023-04-08T19:23:38;17.88;;;12.48;;
67164;SDS011;54093;50.014;19.984;2023-04-08T19:33:01;17.65;;;12.10;;
67164;SDS011;54093;50.014;19.984;2023-04-08T19:42:22;20.52;;;12.48;;
67164;SDS011;54093;50.014;19.984;2023-04-08T19:51:43;21.25;;;11.45;;
67164;SDS011;54093;50.014;19.984;2023-04-08T20:01:04;25.48;;;15.73;;
67164;SDS011;54093;50.014;19.984;2023-04-08T20:10:26;17.02;;;12.38;;
67164;SDS011;54093;50.014;19.984;2023-04-08T20:19:47;23.58;;;15.13;;
67164;SDS011;54093;50.014;19.984;2023-04-08T20:29:08;19.88;;;12.55;;
67164;SDS011;54093;50.014;19.984;2023-04-08T20:38:30;17.10;;;11.32;;
67164;SDS011;54093;50.014;19.984;2023-04-08T20:47:54;18.45;;;12.05;;
67164;SDS011;54093;50.014;19.984;2023-04-08T20:57:15;21.85;;;12.13;;
67164;SDS011;54093;50.014;19.984;2023-04-08T21:06:36;24.13;;;12.73;;
67164;SDS011;54093;50.014;19.984;2023-04-08T21:15:57;18.30;;;12.43;;
67164;SDS011;54093;50.014;19.984;2023-04-08T21:25:18;20.20;;;12.48;;
67164;SDS011;54093;50.014;19.984;2023-04-08T21:34:39;30.73;;;17.02;;
67164;SDS011;54093;50.014;19.984;2023-04-08T21:44:00;17.80;;;10.10;;
67164;SDS011;54093;50.014;19.984;2023-04-08T21:53:21;22.90;;;14.07;;
67164;SDS011;54093;50.014;19.984;2023-04-08T22:02:43;25.63;;;13.32;;
67164;SDS011;54093;50.014;19.984;2023-04-08T22:12:04;27.60;;;15.10;;
67164;SDS011;54093;50.014;19.984;2023-04-08T22:21:25;21.38;;;13.43;;
67164;SDS011;54093;50.014;19.984;2023-04-08T22:30:46;20.90;;;13.40;;
67164;SDS011;54093;50.014;19.984;2023-04-08T22:40:07;25.98;;;12.25;;
67164;SDS011;54093;50.014;19.984;2023-04-08T22:49:29;23.92;;;13.80;;
67164;SDS011;54093;50.014;19.984;2023-04-08T22:58:49;33.80;;;18.35;;
67164;SDS011;54093;50.014;19.984;2023-04-08T23:08:10;21.88;;;13.60;;
67164;SDS011;54093;50.014;19.984;2023-04-08T23:17:31;20.00;;;12.25;;
67164;SDS011;54093;50.014;19.984;2023-04-08T23:26:52;30.10;;;14.93;;
67164;SDS011;54093;50.014;19.984;2023-04-08T23:36:13;24.98;;;15.35;;
67164;SDS011;54093;50.014;19.984;2023-04-08T23:45:34;20.13;;;12.68;;
67164;SDS011;54093;50.014;19.984;2023-04-08T23:54:55;32.38;;;16.00;;
